sensor_id;sensor_type;location;lat;lon;timestamp;P1;durP1;ratioP1;P2;durP2;ratioP2
8323;SDS011;4199;50.802;6.772;2024-03-23T00:53:30;38.13;;;13.97;;
8323;SDS011;4199;50.802;6.772;2024-03-23T00:55:55;38.17;;;15.20;;
8323;SDS011;4199;50.802;6.772;2024-03-23T00:58:21;47.13;;;16.03;;
8323;SDS011;4199;50.802;6.772;2024-03-23T01:00:47;40.57;;;15.83;;
8323;SDS011;4199;50.802;6.772;2024-03-23T01:03:12;42.27;;;17.03;;
8323;SDS011;4199;50.802;6.772;2024-03-23T01:05:38;49.67;;;18.43;;
8323;SDS011;4199;50.802;6.772;2024-03-23T01:08:04;45.97;;;17.17;;
8323;SDS011;4199;50.802;6.772;2024-03-23T01:10:57;40.77;;;16.83;;
8323;SDS011;4199;50.802;6.772;2024-03-23T01:13:26;43.00;;;17.97;;
8323;SDS011;4199;50.802;6.772;2024-03-23T01:15:53;46.17;;;16.93;;
8323;SDS011;4199;50.802;6.772;2024-03-23T01:18:19;44.07;;;16.50;;
8323;SDS011;4199;50.802;6.772;2024-03-23T01:20:45;43.40;;;17.30;;
8323;SDS011;4199;50.802;6.772;2024-03-23T01:23:11;40.30;;;16.67;;
8323;SDS011;4199;50.802;6.772;2024-03-23T01:25:37;36.17;;;15.33;;
8323;SDS011;4199;50.802;6.772;2024-03-23T01:28:03;37.23;;;15.17;;
8323;SDS011;4199;50.802;6.772;2024-03-23T01:30:29;37.17;;;14.87;;
8323;SDS011;4199;50.802;6.772;2024-03-23T01:32:55;35.80;;;13.73;;
8323;SDS011;4199;50.802;6.772;2024-03-23T01:35:21;26.77;;;12.83;;
8323;SDS011;4199;50.802;6.772;2024-03-23T01:37:47;32.13;;;13.57;;
8323;SDS011;4199;50.802;6.772;2024-03-23T01:40:12;29.43;;;12.20;;
8323;SDS011;4199;50.802;6.772;2024-03-23T01:43:06;27.37;;;11.47;;
8323;SDS011;4199;50.802;6.772;2024-03-23T01:45:35;21.67;;;10.27;;
8323;SDS011;4199;50.802;6.772;2024-03-23T01:48:01;21.37;;;8.97;;
8323;SDS011;4199;50.802;6.772;2024-03-23T01:50:46;16.70;;;7.90;;
8323;SDS011;4199;50.802;6.772;2024-03-23T01:53:14;11.77;;;6.53;;
8323;SDS011;4199;50.802;6.772;2024-03-23T01:55:43;13.87;;;6.13;;
8323;SDS011;4199;50.802;6.772;2024-03-23T01:58:08;11.40;;;5.83;;
8323;SDS011;4199;50.802;6.772;2024-03-23T02:00:34;11.03;;;5.53;;
8323;SDS011;4199;50.802;6.772;2024-03-23T02:03:00;13.43;;;5.60;;
8323;SDS011;4199;50.802;6.772;2024-03-23T02:05:25;14.97;;;6.20;;
8323;SDS011;4199;50.802;6.772;2024-03-23T02:07:51;13.10;;;6.83;;
8323;SDS011;4199;50.802;6.772;2024-03-23T02:10:17;12.80;;;6.50;;
8323;SDS011;4199;50.802;6.772;2024-03-23T02:12:42;14.97;;;7.13;;
8323;SDS011;4199;50.802;6.772;2024-03-23T02:15:08;9.97;;;4.93;;
8323;SDS011;4199;50.802;6.772;2024-03-23T02:17:34;9.87;;;4.07;;
8323;SDS011;4199;50.802;6.772;2024-03-23T02:20:01;13.30;;;4.67;;
8323;SDS011;4199;50.802;6.772;2024-03-23T02:22:35;8.63;;;4.70;;
8323;SDS011;4199;50.802;6.772;2024-03-23T02:25:01;9.90;;;4.43;;
8323;SDS011;4199;50.802;6.772;2024-03-23T02:27:28;11.30;;;4.30;;
8323;SDS011;4199;50.802;6.772;2024-03-23T02:29:53;14.03;;;4.90;;
8323;SDS011;4199;50.802;6.772;2024-03-23T02:32:19;10.73;;;4.83;;
8323;SDS011;4199;50.802;6.772;2024-03-23T02:34:44;8.67;;;4.20;;
8323;SDS011;4199;50.802;6.772;2024-03-23T02:37:10;13.73;;;4.47;;
8323;SDS011;4199;50.802;6.772;2024-03-23T02:39:37;7.73;;;3.87;;
8323;SDS011;4199;50.802;6.772;2024-03-23T02:42:02;12.97;;;3.90;;
8323;SDS011;4199;50.802;6.772;2024-03-23T02:44:28;8.00;;;3.90;;
8323;SDS011;4199;50.802;6.772;2024-03-23T02:46:53;7.97;;;3.27;;
8323;SDS011;4199;50.802;6.772;2024-03-23T02:49:19;10.20;;;3.13;;
8323;SDS011;4199;50.802;6.772;2024-03-23T02:51:46;11.43;;;3.20;;
8323;SDS011;4199;50.802;6.772;2024-03-23T02:54:13;11.63;;;3.33;;
8323;SDS011;4199;50.802;6.772;2024-03-23T02:56:39;10.07;;;3.47;;
8323;SDS011;4199;50.802;6.772;2024-03-23T02:59:14;13.60;;;3.77;;
8323;SDS011;4199;50.802;6.772;2024-03-23T03:01:39;13.37;;;3.27;;
8323;SDS011;4199;50.802;6.772;2024-03-23T03:04:05;11.93;;;3.97;;
8323;SDS011;4199;50.802;6.772;2024-03-23T03:06:31;11.23;;;3.50;;
8323;SDS011;4199;50.802;6.772;2024-03-23T03:08:57;11.00;;;3.77;;
8323;SDS011;4199;50.802;6.772;2024-03-23T03:11:34;11.33;;;3.10;;
8323;SDS011;4199;50.802;6.772;2024-03-23T03:14:00;12.90;;;3.73;;
8323;SDS011;4199;50.802;6.772;2024-03-23T03:16:26;12.10;;;3.43;;
8323;SDS011;4199;50.802;6.772;2024-03-23T03:18:52;15.13;;;3.37;;
8323;SDS011;4199;50.802;6.772;2024-03-23T03:21:18;11.27;;;3.23;;
8323;SDS011;4199;50.802;6.772;2024-03-23T03:23:44;9.97;;;3.23;;
8323;SDS011;4199;50.802;6.772;2024-03-23T03:26:10;11.67;;;3.50;;
8323;SDS011;4199;50.802;6.772;2024-03-23T03:28:35;12.17;;;4.10;;
8323;SDS011;4199;50.802;6.772;2024-03-23T03:31:01;13.17;;;3.53;;
8323;SDS011;4199;50.802;6.772;2024-03-23T03:33:29;12.77;;;3.90;;
8323;SDS011;4199;50.802;6.772;2024-03-23T03:35:55;15.00;;;4.00;;
8323;SDS011;4199;50.802;6.772;2024-03-23T03:38:20;12.50;;;3.93;;
8323;SDS011;4199;50.802;6.772;2024-03-23T03:40:46;16.37;;;4.17;;
8323;SDS011;4199;50.802;6.772;2024-03-23T03:43:12;13.13;;;4.07;;
8323;SDS011;4199;50.802;6.772;2024-03-23T03:45:37;11.87;;;4.00;;
8323;SDS011;4199;50.802;6.772;2024-03-23T03:48:03;11.90;;;3.80;;
8323;SDS011;4199;50.802;6.772;2024-03-23T03:50:29;15.67;;;3.40;;
8323;SDS011;4199;50.802;6.772;2024-03-23T03:52:55;14.00;;;3.27;;
8323;SDS011;4199;50.802;6.772;2024-03-23T03:55:21;11.60;;;3.30;;
8323;SDS011;4199;50.802;6.772;2024-03-23T03:57:47;10.70;;;2.90;;
8323;SDS011;4199;50.802;6.772;2024-03-23T04:00:12;12.47;;;3.00;;
8323;SDS011;4199;50.802;6.772;2024-03-23T04:02:38;7.73;;;2.70;;
8323;SDS011;4199;50.802;6.772;2024-03-23T04:05:04;9.43;;;2.77;;
8323;SDS011;4199;50.802;6.772;2024-03-23T04:07:30;9.30;;;3.00;;
8323;SDS011;4199;50.802;6.772;2024-03-23T04:09:56;12.57;;;3.30;;
8323;SDS011;4199;50.802;6.772;2024-03-23T04:12:21;12.00;;;3.17;;
8323;SDS011;4199;50.802;6.772;2024-03-23T04:14:47;9.93;;;3.30;;
8323;SDS011;4199;50.802;6.772;2024-03-23T04:17:12;12.13;;;3.07;;
8323;SDS011;4199;50.802;6.772;2024-03-23T04:19:38;11.07;;;3.10;;
8323;SDS011;4199;50.802;6.772;2024-03-23T04:22:04;10.87;;;3.03;;
8323;SDS011;4199;50.802;6.772;2024-03-23T04:24:30;12.83;;;3.13;;
8323;SDS011;4199;50.802;6.772;2024-03-23T04:26:56;14.73;;;3.10;;
8323;SDS011;4199;50.802;6.772;2024-03-23T04:29:21;9.50;;;3.00;;
8323;SDS011;4199;50.802;6.772;2024-03-23T04:31:47;12.00;;;3.10;;
8323;SDS011;4199;50.802;6.772;2024-03-23T04:34:13;8.40;;;3.10;;
8323;SDS011;4199;50.802;6.772;2024-03-23T04:36:47;12.70;;;3.07;;
8323;SDS011;4199;50.802;6.772;2024-03-23T04:39:16;9.50;;;3.03;;
8323;SDS011;4199;50.802;6.772;2024-03-23T04:41:41;11.47;;;3.80;;
8323;SDS011;4199;50.802;6.772;2024-03-23T04:44:07;10.50;;;3.10;;
8323;SDS011;4199;50.802;6.772;2024-03-23T04:46:32;18.03;;;3.40;;
8323;SDS011;4199;50.802;6.772;2024-03-23T04:48:58;9.70;;;3.50;;
8323;SDS011;4199;50.802;6.772;2024-03-23T04:51:24;14.53;;;3.77;;
8323;SDS011;4199;50.802;6.772;2024-03-23T04:54:08;13.73;;;3.80;;
8323;SDS011;4199;50.802;6.772;2024-03-23T04:56:49;11.60;;;4.27;;
8323;SDS011;4199;50.802;6.772;2024-03-23T04:59:14;16.07;;;4.63;;
8323;SDS011;4199;50.802;6.772;2024-03-23T05:01:40;15.67;;;4.00;;
8323;SDS011;4199;50.802;6.772;2024-03-23T05:04:07;15.97;;;4.40;;
8323;SDS011;4199;50.802;6.772;2024-03-23T05:06:33;17.87;;;4.10;;
8323;SDS011;4199;50.802;6.772;2024-03-23T05:08:59;9.93;;;3.53;;
8323;SDS011;4199;50.802;6.772;2024-03-23T05:11:28;11.07;;;3.40;;
8323;SDS011;4199;50.802;6.772;2024-03-23T05:13:53;15.50;;;3.80;;
8323;SDS011;4199;50.802;6.772;2024-03-23T05:16:19;12.27;;;3.60;;
8323;SDS011;4199;50.802;6.772;2024-03-23T05:18:44;10.47;;;3.53;;
8323;SDS011;4199;50.802;6.772;2024-03-23T05:21:10;13.30;;;4.80;;
8323;SDS011;4199;50.802;6.772;2024-03-23T05:23:36;30.43;;;13.57;;
8323;SDS011;4199;50.802;6.772;2024-03-23T05:26:03;27.80;;;11.30;;
8323;SDS011;4199;50.802;6.772;2024-03-23T05:28:29;11.20;;;3.90;;
8323;SDS011;4199;50.802;6.772;2024-03-23T05:30:55;15.27;;;4.17;;
8323;SDS011;4199;50.802;6.772;2024-03-23T05:33:22;16.40;;;3.90;;
8323;SDS011;4199;50.802;6.772;2024-03-23T05:35:55;13.97;;;4.23;;
8323;SDS011;4199;50.802;6.772;2024-03-23T05:38:42;16.33;;;4.67;;
8323;SDS011;4199;50.802;6.772;2024-03-23T05:41:26;16.43;;;3.90;;
8323;SDS011;4199;50.802;6.772;2024-03-23T05:43:52;15.57;;;4.60;;
8323;SDS011;4199;50.802;6.772;2024-03-23T05:46:17;14.47;;;3.97;;
8323;SDS011;4199;50.802;6.772;2024-03-23T05:48:43;16.33;;;4.17;;
8323;SDS011;4199;50.802;6.772;2024-03-23T05:51:08;13.47;;;4.03;;
8323;SDS011;4199;50.802;6.772;2024-03-23T05:53:34;16.70;;;4.57;;
8323;SDS011;4199;50.802;6.772;2024-03-23T05:56:00;12.50;;;4.03;;
8323;SDS011;4199;50.802;6.772;2024-03-23T05:58:29;14.20;;;3.80;;
8323;SDS011;4199;50.802;6.772;2024-03-23T06:01:13;14.17;;;3.70;;
8323;SDS011;4199;50.802;6.772;2024-03-23T06:03:39;13.03;;;4.00;;
8323;SDS011;4199;50.802;6.772;2024-03-23T06:06:04;9.83;;;3.83;;
8323;SDS011;4199;50.802;6.772;2024-03-23T06:08:35;16.20;;;4.10;;
8323;SDS011;4199;50.802;6.772;2024-03-23T06:11:01;15.27;;;4.37;;
8323;SDS011;4199;50.802;6.772;2024-03-23T06:13:26;13.17;;;4.37;;
8323;SDS011;4199;50.802;6.772;2024-03-23T06:15:55;11.70;;;4.33;;
8323;SDS011;4199;50.802;6.772;2024-03-23T06:18:21;12.53;;;3.90;;
8323;SDS011;4199;50.802;6.772;2024-03-23T06:20:46;15.33;;;4.50;;
8323;SDS011;4199;50.802;6.772;2024-03-23T06:23:12;15.03;;;4.60;;
8323;SDS011;4199;50.802;6.772;2024-03-23T06:25:38;17.20;;;4.47;;
8323;SDS011;4199;50.802;6.772;2024-03-23T06:28:03;17.20;;;4.87;;
8323;SDS011;4199;50.802;6.772;2024-03-23T06:30:29;14.97;;;4.30;;
8323;SDS011;4199;50.802;6.772;2024-03-23T06:32:57;14.97;;;4.73;;
8323;SDS011;4199;50.802;6.772;2024-03-23T06:35:22;12.33;;;4.00;;
8323;SDS011;4199;50.802;6.772;2024-03-23T06:37:48;18.63;;;9.13;;
8323;SDS011;4199;50.802;6.772;2024-03-23T06:40:14;28.10;;;11.20;;
8323;SDS011;4199;50.802;6.772;2024-03-23T06:42:40;15.77;;;4.83;;
8323;SDS011;4199;50.802;6.772;2024-03-23T06:45:05;19.90;;;5.13;;
8323;SDS011;4199;50.802;6.772;2024-03-23T06:47:50;18.20;;;4.50;;
8323;SDS011;4199;50.802;6.772;2024-03-23T06:50:17;13.40;;;4.33;;
8323;SDS011;4199;50.802;6.772;2024-03-23T06:52:43;21.37;;;5.27;;
8323;SDS011;4199;50.802;6.772;2024-03-23T06:55:08;14.17;;;4.67;;
8323;SDS011;4199;50.802;6.772;2024-03-23T06:57:34;13.67;;;5.10;;
8323;SDS011;4199;50.802;6.772;2024-03-23T07:00:18;14.40;;;4.60;;
8323;SDS011;4199;50.802;6.772;2024-03-23T07:02:44;14.27;;;5.20;;
8323;SDS011;4199;50.802;6.772;2024-03-23T07:05:10;16.60;;;5.50;;
8323;SDS011;4199;50.802;6.772;2024-03-23T07:07:37;17.27;;;5.60;;
8323;SDS011;4199;50.802;6.772;2024-03-23T07:10:04;13.23;;;6.70;;
8323;SDS011;4199;50.802;6.772;2024-03-23T07:12:31;16.27;;;6.80;;
8323;SDS011;4199;50.802;6.772;2024-03-23T07:14:56;16.57;;;6.90;;
8323;SDS011;4199;50.802;6.772;2024-03-23T07:17:22;23.43;;;7.70;;
8323;SDS011;4199;50.802;6.772;2024-03-23T07:19:48;18.03;;;8.50;;
8323;SDS011;4199;50.802;6.772;2024-03-23T07:22:13;19.17;;;8.97;;
8323;SDS011;4199;50.802;6.772;2024-03-23T07:24:39;24.50;;;9.83;;
8323;SDS011;4199;50.802;6.772;2024-03-23T07:27:05;17.67;;;8.77;;
8323;SDS011;4199;50.802;6.772;2024-03-23T07:29:34;22.17;;;9.07;;
8323;SDS011;4199;50.802;6.772;2024-03-23T07:31:59;19.37;;;8.80;;
8323;SDS011;4199;50.802;6.772;2024-03-23T07:34:25;20.37;;;8.83;;
8323;SDS011;4199;50.802;6.772;2024-03-23T07:36:50;20.47;;;9.63;;
8323;SDS011;4199;50.802;6.772;2024-03-23T07:39:16;19.40;;;9.27;;
8323;SDS011;4199;50.802;6.772;2024-03-23T07:41:44;21.47;;;9.77;;
8323;SDS011;4199;50.802;6.772;2024-03-23T07:44:10;18.47;;;9.67;;
8323;SDS011;4199;50.802;6.772;2024-03-23T07:46:36;16.67;;;9.00;;
8323;SDS011;4199;50.802;6.772;2024-03-23T07:49:01;11.33;;;4.67;;
8323;SDS011;4199;50.802;6.772;2024-03-23T07:51:27;11.03;;;3.17;;
8323;SDS011;4199;50.802;6.772;2024-03-23T07:53:52;4.67;;;1.90;;
8323;SDS011;4199;50.802;6.772;2024-03-23T07:56:18;5.20;;;2.10;;
8323;SDS011;4199;50.802;6.772;2024-03-23T07:58:45;4.20;;;1.80;;
8323;SDS011;4199;50.802;6.772;2024-03-23T08:01:11;14.50;;;9.57;;
8323;SDS011;4199;50.802;6.772;2024-03-23T08:03:39;6.47;;;3.13;;
8323;SDS011;4199;50.802;6.772;2024-03-23T08:06:12;5.57;;;1.50;;
8323;SDS011;4199;50.802;6.772;2024-03-23T08:08:40;4.27;;;1.60;;
8323;SDS011;4199;50.802;6.772;2024-03-23T08:11:06;3.60;;;1.70;;
8323;SDS011;4199;50.802;6.772;2024-03-23T08:13:32;5.43;;;1.90;;
8323;SDS011;4199;50.802;6.772;2024-03-23T08:16:02;5.03;;;2.30;;
8323;SDS011;4199;50.802;6.772;2024-03-23T08:18:28;8.07;;;3.47;;
8323;SDS011;4199;50.802;6.772;2024-03-23T08:21:01;11.13;;;3.90;;
8323;SDS011;4199;50.802;6.772;2024-03-23T08:23:28;6.77;;;3.77;;
8323;SDS011;4199;50.802;6.772;2024-03-23T08:25:57;8.83;;;4.33;;
8323;SDS011;4199;50.802;6.772;2024-03-23T08:28:24;10.20;;;5.17;;
8323;SDS011;4199;50.802;6.772;2024-03-23T08:30:51;11.23;;;6.50;;
8323;SDS011;4199;50.802;6.772;2024-03-23T08:33:18;15.13;;;7.30;;
8323;SDS011;4199;50.802;6.772;2024-03-23T08:35:52;13.27;;;8.03;;
8323;SDS011;4199;50.802;6.772;2024-03-23T08:38:18;12.93;;;8.73;;
8323;SDS011;4199;50.802;6.772;2024-03-23T08:40:44;60.43;;;38.07;;
8323;SDS011;4199;50.802;6.772;2024-03-23T08:43:09;18.87;;;9.97;;
8323;SDS011;4199;50.802;6.772;2024-03-23T08:45:35;19.20;;;9.20;;
8323;SDS011;4199;50.802;6.772;2024-03-23T08:48:00;15.50;;;7.73;;
8323;SDS011;4199;50.802;6.772;2024-03-23T08:50:26;14.67;;;7.13;;
8323;SDS011;4199;50.802;6.772;2024-03-23T08:52:52;17.07;;;7.60;;
8323;SDS011;4199;50.802;6.772;2024-03-23T08:55:17;14.57;;;6.40;;
8323;SDS011;4199;50.802;6.772;2024-03-23T08:57:43;15.60;;;7.10;;
8323;SDS011;4199;50.802;6.772;2024-03-23T09:00:09;15.10;;;5.80;;
8323;SDS011;4199;50.802;6.772;2024-03-23T09:02:36;11.83;;;5.83;;
8323;SDS011;4199;50.802;6.772;2024-03-23T09:05:02;16.70;;;5.60;;
8323;SDS011;4199;50.802;6.772;2024-03-23T09:07:32;16.07;;;5.03;;
8323;SDS011;4199;50.802;6.772;2024-03-23T09:09:58;15.00;;;5.23;;
8323;SDS011;4199;50.802;6.772;2024-03-23T09:12:23;13.37;;;4.20;;
8323;SDS011;4199;50.802;6.772;2024-03-23T09:14:50;11.70;;;4.80;;
8323;SDS011;4199;50.802;6.772;2024-03-23T09:17:16;11.83;;;4.00;;
8323;SDS011;4199;50.802;6.772;2024-03-23T09:19:41;12.37;;;4.37;;
8323;SDS011;4199;50.802;6.772;2024-03-23T09:22:07;11.87;;;4.30;;
8323;SDS011;4199;50.802;6.772;2024-03-23T09:24:32;12.00;;;4.67;;
8323;SDS011;4199;50.802;6.772;2024-03-23T09:26:58;8.60;;;3.47;;
8323;SDS011;4199;50.802;6.772;2024-03-23T09:29:23;9.63;;;4.30;;
8323;SDS011;4199;50.802;6.772;2024-03-23T09:31:49;7.37;;;3.47;;
8323;SDS011;4199;50.802;6.772;2024-03-23T09:34:15;9.73;;;4.10;;
8323;SDS011;4199;50.802;6.772;2024-03-23T09:36:41;9.20;;;3.87;;
8323;SDS011;4199;50.802;6.772;2024-03-23T09:39:07;9.27;;;3.20;;
8323;SDS011;4199;50.802;6.772;2024-03-23T09:41:34;11.43;;;3.13;;
8323;SDS011;4199;50.802;6.772;2024-03-23T09:44:00;12.07;;;3.83;;
8323;SDS011;4199;50.802;6.772;2024-03-23T09:46:27;8.57;;;2.70;;
8323;SDS011;4199;50.802;6.772;2024-03-23T09:48:55;9.80;;;3.17;;
8323;SDS011;4199;50.802;6.772;2024-03-23T09:51:21;15.30;;;7.77;;
8323;SDS011;4199;50.802;6.772;2024-03-23T09:53:46;13.27;;;3.10;;
8323;SDS011;4199;50.802;6.772;2024-03-23T09:56:13;8.80;;;2.83;;
8323;SDS011;4199;50.802;6.772;2024-03-23T09:58:38;7.63;;;2.40;;
8323;SDS011;4199;50.802;6.772;2024-03-23T10:01:04;6.77;;;2.70;;
8323;SDS011;4199;50.802;6.772;2024-03-23T10:03:30;9.70;;;2.33;;
8323;SDS011;4199;50.802;6.772;2024-03-23T10:06:02;8.30;;;2.77;;
8323;SDS011;4199;50.802;6.772;2024-03-23T10:08:28;8.30;;;3.20;;
8323;SDS011;4199;50.802;6.772;2024-03-23T10:10:54;10.83;;;3.13;;
8323;SDS011;4199;50.802;6.772;2024-03-23T10:13:23;9.00;;;2.90;;
8323;SDS011;4199;50.802;6.772;2024-03-23T10:15:54;6.37;;;2.90;;
8323;SDS011;4199;50.802;6.772;2024-03-23T10:18:21;8.17;;;2.80;;
8323;SDS011;4199;50.802;6.772;2024-03-23T10:20:50;6.77;;;2.47;;
8323;SDS011;4199;50.802;6.772;2024-03-23T10:23:35;4.27;;;2.17;;
8323;SDS011;4199;50.802;6.772;2024-03-23T10:31:20;16.17;;;11.10;;
8323;SDS011;4199;50.802;6.772;2024-03-23T10:33:46;6.50;;;2.30;;
8323;SDS011;4199;50.802;6.772;2024-03-23T10:36:13;3.30;;;1.80;;
8323;SDS011;4199;50.802;6.772;2024-03-23T10:38:42;4.73;;;2.00;;
8323;SDS011;4199;50.802;6.772;2024-03-23T10:41:08;2.97;;;1.83;;
8323;SDS011;4199;50.802;6.772;2024-03-23T10:43:35;5.67;;;2.50;;
8323;SDS011;4199;50.802;6.772;2024-03-23T10:46:01;4.40;;;1.73;;
8323;SDS011;4199;50.802;6.772;2024-03-23T10:48:27;6.53;;;2.13;;
8323;SDS011;4199;50.802;6.772;2024-03-23T10:50:53;7.17;;;2.13;;
8323;SDS011;4199;50.802;6.772;2024-03-23T10:53:20;4.20;;;1.90;;
8323;SDS011;4199;50.802;6.772;2024-03-23T10:55:48;5.33;;;2.33;;
8323;SDS011;4199;50.802;6.772;2024-03-23T10:58:14;5.90;;;2.20;;
8323;SDS011;4199;50.802;6.772;2024-03-23T11:00:41;5.93;;;2.27;;
8323;SDS011;4199;50.802;6.772;2024-03-23T11:06:12;7.37;;;3.40;;
8323;SDS011;4199;50.802;6.772;2024-03-23T11:09:00;11.00;;;3.20;;
8323;SDS011;4199;50.802;6.772;2024-03-23T11:11:26;7.63;;;3.03;;
8323;SDS011;4199;50.802;6.772;2024-03-23T11:13:53;35.03;;;22.77;;
8323;SDS011;4199;50.802;6.772;2024-03-23T11:16:23;11.70;;;4.30;;
8323;SDS011;4199;50.802;6.772;2024-03-23T11:18:49;8.33;;;4.03;;
8323;SDS011;4199;50.802;6.772;2024-03-23T11:24:21;8.30;;;4.30;;
8323;SDS011;4199;50.802;6.772;2024-03-23T11:26:48;8.67;;;3.70;;
8323;SDS011;4199;50.802;6.772;2024-03-23T11:29:14;9.03;;;3.87;;
8323;SDS011;4199;50.802;6.772;2024-03-23T11:31:47;6.97;;;3.03;;
8323;SDS011;4199;50.802;6.772;2024-03-23T11:34:17;9.20;;;3.50;;
8323;SDS011;4199;50.802;6.772;2024-03-23T11:36:43;6.97;;;2.80;;
8323;SDS011;4199;50.802;6.772;2024-03-23T11:39:13;7.00;;;2.77;;
8323;SDS011;4199;50.802;6.772;2024-03-23T11:41:48;9.10;;;2.97;;
8323;SDS011;4199;50.802;6.772;2024-03-23T11:44:16;6.63;;;2.90;;
8323;SDS011;4199;50.802;6.772;2024-03-23T11:46:41;8.30;;;2.90;;
8323;SDS011;4199;50.802;6.772;2024-03-23T11:49:18;9.67;;;3.50;;
8323;SDS011;4199;50.802;6.772;2024-03-23T11:51:50;8.97;;;3.30;;
8323;SDS011;4199;50.802;6.772;2024-03-23T11:54:16;11.10;;;3.77;;
8323;SDS011;4199;50.802;6.772;2024-03-23T11:57:02;5.53;;;2.77;;
8323;SDS011;4199;50.802;6.772;2024-03-23T11:59:37;8.90;;;3.53;;
8323;SDS011;4199;50.802;6.772;2024-03-23T12:02:13;5.80;;;2.07;;
8323;SDS011;4199;50.802;6.772;2024-03-23T12:04:41;12.17;;;4.17;;
8323;SDS011;4199;50.802;6.772;2024-03-23T12:07:14;10.47;;;4.50;;
8323;SDS011;4199;50.802;6.772;2024-03-23T12:09:44;4.90;;;2.10;;
8323;SDS011;4199;50.802;6.772;2024-03-23T12:12:14;7.00;;;2.20;;
8323;SDS011;4199;50.802;6.772;2024-03-23T12:14:42;4.00;;;2.03;;
8323;SDS011;4199;50.802;6.772;2024-03-23T12:19:37;3.83;;;1.93;;
8323;SDS011;4199;50.802;6.772;2024-03-23T12:22:04;4.97;;;2.07;;
8323;SDS011;4199;50.802;6.772;2024-03-23T12:24:30;4.90;;;2.23;;
8323;SDS011;4199;50.802;6.772;2024-03-23T12:27:00;4.03;;;1.70;;
8323;SDS011;4199;50.802;6.772;2024-03-23T12:29:30;2.63;;;1.17;;
8323;SDS011;4199;50.802;6.772;2024-03-23T12:32:00;4.10;;;1.10;;
8323;SDS011;4199;50.802;6.772;2024-03-23T12:34:26;2.27;;;1.10;;
8323;SDS011;4199;50.802;6.772;2024-03-23T12:36:52;2.40;;;1.10;;
8323;SDS011;4199;50.802;6.772;2024-03-23T12:39:18;4.27;;;1.00;;
8323;SDS011;4199;50.802;6.772;2024-03-23T12:41:46;2.07;;;1.17;;
8323;SDS011;4199;50.802;6.772;2024-03-23T12:44:11;1.67;;;1.00;;
8323;SDS011;4199;50.802;6.772;2024-03-23T12:46:37;2.43;;;1.20;;
8323;SDS011;4199;50.802;6.772;2024-03-23T12:49:03;2.50;;;0.87;;
8323;SDS011;4199;50.802;6.772;2024-03-23T12:51:29;3.87;;;1.10;;
8323;SDS011;4199;50.802;6.772;2024-03-23T12:53:54;3.90;;;1.20;;
8323;SDS011;4199;50.802;6.772;2024-03-23T12:56:20;1.60;;;1.03;;
8323;SDS011;4199;50.802;6.772;2024-03-23T12:58:45;1.40;;;0.90;;
8323;SDS011;4199;50.802;6.772;2024-03-23T13:01:16;1.77;;;0.90;;
8323;SDS011;4199;50.802;6.772;2024-03-23T13:03:42;3.87;;;1.07;;
8323;SDS011;4199;50.802;6.772;2024-03-23T13:06:10;1.57;;;1.20;;
8323;SDS011;4199;50.802;6.772;2024-03-23T13:08:35;1.93;;;1.43;;
8323;SDS011;4199;50.802;6.772;2024-03-23T13:11:01;2.73;;;1.50;;
8323;SDS011;4199;50.802;6.772;2024-03-23T13:13:27;2.53;;;1.37;;
8323;SDS011;4199;50.802;6.772;2024-03-23T13:15:52;3.43;;;1.70;;
8323;SDS011;4199;50.802;6.772;2024-03-23T13:18:18;3.70;;;1.67;;
8323;SDS011;4199;50.802;6.772;2024-03-23T13:20:44;3.30;;;1.50;;
8323;SDS011;4199;50.802;6.772;2024-03-23T13:23:09;4.43;;;1.80;;
8323;SDS011;4199;50.802;6.772;2024-03-23T13:25:35;3.87;;;1.90;;
8323;SDS011;4199;50.802;6.772;2024-03-23T13:28:01;4.10;;;2.30;;
8323;SDS011;4199;50.802;6.772;2024-03-23T13:30:27;5.13;;;2.20;;
8323;SDS011;4199;50.802;6.772;2024-03-23T13:32:53;4.17;;;1.90;;
8323;SDS011;4199;50.802;6.772;2024-03-23T13:35:18;4.97;;;1.93;;
8323;SDS011;4199;50.802;6.772;2024-03-23T13:37:44;4.73;;;2.00;;
8323;SDS011;4199;50.802;6.772;2024-03-23T13:40:10;2.83;;;2.00;;
8323;SDS011;4199;50.802;6.772;2024-03-23T13:42:36;6.13;;;2.30;;
8323;SDS011;4199;50.802;6.772;2024-03-23T13:45:02;8.30;;;3.27;;
8323;SDS011;4199;50.802;6.772;2024-03-23T13:47:28;3.37;;;2.20;;
8323;SDS011;4199;50.802;6.772;2024-03-23T13:49:54;5.27;;;2.87;;
8323;SDS011;4199;50.802;6.772;2024-03-23T13:52:19;6.73;;;2.37;;
8323;SDS011;4199;50.802;6.772;2024-03-23T13:54:48;6.73;;;2.60;;
8323;SDS011;4199;50.802;6.772;2024-03-23T13:57:14;6.90;;;2.40;;
8323;SDS011;4199;50.802;6.772;2024-03-23T13:59:39;4.00;;;1.70;;
8323;SDS011;4199;50.802;6.772;2024-03-23T14:02:05;1.60;;;1.50;;
8323;SDS011;4199;50.802;6.772;2024-03-23T14:04:31;2.53;;;1.17;;
8323;SDS011;4199;50.802;6.772;2024-03-23T14:06:56;3.50;;;1.40;;
8323;SDS011;4199;50.802;6.772;2024-03-23T14:09:23;4.20;;;2.00;;
8323;SDS011;4199;50.802;6.772;2024-03-23T14:11:50;5.43;;;2.03;;
8323;SDS011;4199;50.802;6.772;2024-03-23T14:14:16;2.67;;;1.87;;
8323;SDS011;4199;50.802;6.772;2024-03-23T14:16:45;5.40;;;2.20;;
8323;SDS011;4199;50.802;6.772;2024-03-23T14:19:10;3.53;;;1.90;;
8323;SDS011;4199;50.802;6.772;2024-03-23T14:21:36;5.30;;;2.47;;
8323;SDS011;4199;50.802;6.772;2024-03-23T14:24:01;5.03;;;1.90;;
8323;SDS011;4199;50.802;6.772;2024-03-23T14:26:28;4.70;;;2.00;;
8323;SDS011;4199;50.802;6.772;2024-03-23T14:28:53;4.63;;;2.13;;
8323;SDS011;4199;50.802;6.772;2024-03-23T14:31:19;3.43;;;2.13;;
8323;SDS011;4199;50.802;6.772;2024-03-23T14:33:45;2.60;;;2.00;;
8323;SDS011;4199;50.802;6.772;2024-03-23T14:36:15;2.73;;;2.10;;
8323;SDS011;4199;50.802;6.772;2024-03-23T14:38:50;4.87;;;2.10;;
8323;SDS011;4199;50.802;6.772;2024-03-23T14:41:16;3.37;;;2.33;;
8323;SDS011;4199;50.802;6.772;2024-03-23T14:43:41;2.80;;;1.60;;
8323;SDS011;4199;50.802;6.772;2024-03-23T14:46:12;3.40;;;2.50;;
8323;SDS011;4199;50.802;6.772;2024-03-23T14:48:39;14.37;;;11.03;;
8323;SDS011;4199;50.802;6.772;2024-03-23T14:51:06;4.37;;;3.47;;
8323;SDS011;4199;50.802;6.772;2024-03-23T14:53:34;2.30;;;1.77;;
8323;SDS011;4199;50.802;6.772;2024-03-23T14:56:03;4.00;;;2.00;;
8323;SDS011;4199;50.802;6.772;2024-03-23T14:58:29;2.33;;;1.90;;
8323;SDS011;4199;50.802;6.772;2024-03-23T15:01:04;1.57;;;1.20;;
8323;SDS011;4199;50.802;6.772;2024-03-23T15:03:34;1.53;;;0.90;;
8323;SDS011;4199;50.802;6.772;2024-03-23T15:06:00;2.90;;;0.90;;
8323;SDS011;4199;50.802;6.772;2024-03-23T15:08:27;1.33;;;0.90;;
8323;SDS011;4199;50.802;6.772;2024-03-23T15:10:53;1.93;;;0.93;;
8323;SDS011;4199;50.802;6.772;2024-03-23T15:13:19;2.80;;;1.00;;
8323;SDS011;4199;50.802;6.772;2024-03-23T15:15:48;1.30;;;0.97;;
8323;SDS011;4199;50.802;6.772;2024-03-23T15:18:17;1.63;;;1.10;;
8323;SDS011;4199;50.802;6.772;2024-03-23T15:20:53;25.13;;;16.20;;
8323;SDS011;4199;50.802;6.772;2024-03-23T15:23:23;56.80;;;43.73;;
8323;SDS011;4199;50.802;6.772;2024-03-23T15:28:21;2.50;;;1.40;;
8323;SDS011;4199;50.802;6.772;2024-03-23T15:30:48;3.10;;;2.00;;
8323;SDS011;4199;50.802;6.772;2024-03-23T15:33:14;4.27;;;2.70;;
8323;SDS011;4199;50.802;6.772;2024-03-23T15:35:39;4.50;;;1.93;;
8323;SDS011;4199;50.802;6.772;2024-03-23T15:38:05;2.00;;;1.80;;
8323;SDS011;4199;50.802;6.772;2024-03-23T15:40:30;3.03;;;1.57;;
8323;SDS011;4199;50.802;6.772;2024-03-23T15:42:56;3.90;;;1.50;;
8323;SDS011;4199;50.802;6.772;2024-03-23T15:45:21;3.20;;;1.70;;
8323;SDS011;4199;50.802;6.772;2024-03-23T15:47:47;6.63;;;3.80;;
8323;SDS011;4199;50.802;6.772;2024-03-23T15:50:13;4.50;;;2.43;;
8323;SDS011;4199;50.802;6.772;2024-03-23T15:52:38;4.87;;;2.57;;
8323;SDS011;4199;50.802;6.772;2024-03-23T15:55:04;3.70;;;2.17;;
8323;SDS011;4199;50.802;6.772;2024-03-23T15:57:33;3.83;;;2.30;;
8323;SDS011;4199;50.802;6.772;2024-03-23T15:59:59;4.77;;;2.03;;
8323;SDS011;4199;50.802;6.772;2024-03-23T16:02:25;4.47;;;2.00;;
8323;SDS011;4199;50.802;6.772;2024-03-23T16:04:53;6.83;;;2.13;;
8323;SDS011;4199;50.802;6.772;2024-03-23T16:07:19;5.00;;;2.13;;
8323;SDS011;4199;50.802;6.772;2024-03-23T16:09:44;2.13;;;1.93;;
8323;SDS011;4199;50.802;6.772;2024-03-23T16:12:10;2.53;;;1.10;;
8323;SDS011;4199;50.802;6.772;2024-03-23T16:14:35;1.60;;;0.90;;
8323;SDS011;4199;50.802;6.772;2024-03-23T16:17:01;1.67;;;0.80;;